Time;durP1;ratioP1;P1;durP2;ratioP2;P2;SDS_P1;SDS_P2;PMS_P1;PMS_P2;Temp;Humidity;BMP_temperature;BMP_pressure;BME280_temperature;BME280_humidity;BME280_pressure;Samples;Min_cycle;Max_cycle;Signal;HPM_P1;HPM_P2
2022/11/16 00:00:34;;;;;;;595.40;531.10;;;;;;;;;;6117200;23;20365;-76
2022/11/16 00:03:03;;;;;;;600.75;536.25;;;;;;;;;;6141646;23;20431;-76
2022/11/16 00:05:30;;;;;;;600.78;536.28;;;;;;;;;;6142005;23;20396;-76
2022/11/16 00:07:57;;;;;;;600.60;536.20;;;;;;;;;;6139380;23;20460;-76
2022/11/16 00:10:23;;;;;;;598.70;534.30;;;;;;;;;;6142071;23;21293;-76
2022/11/16 00:12:49;;;;;;;604.60;540.10;;;;;;;;;;6141946;23;20821;-76
2022/11/16 00:15:16;;;;;;;599.47;535.07;;;;;;;;;;6141361;23;20567;-77
2022/11/16 00:17:42;;;;;;;604.17;539.67;;;;;;;;;;6139724;23;20381;-77
2022/11/16 00:20:08;;;;;;;598.20;534.00;;;;;;;;;;6141834;23;20746;-77
2022/11/16 00:22:34;;;;;;;599.97;535.63;;;;;;;;;;6141665;23;20836;-76
2022/11/16 00:25:00;;;;;;;597.80;533.40;;;;;;;;;;6142352;23;20900;-76
2022/11/16 00:27:26;;;;;;;601.40;536.92;;;;;;;;;;6141008;23;20715;-76
2022/11/16 00:29:52;;;;;;;603.60;539.13;;;;;;;;;;6141532;23;20401;-76
2022/11/16 00:32:18;;;;;;;603.63;539.20;;;;;;;;;;6140683;23;20410;-77
2022/11/16 00:34:44;;;;;;;606.63;542.03;;;;;;;;;;6141716;23;20461;-77
2022/11/16 00:37:10;;;;;;;605.72;541.22;;;;;;;;;;6140881;23;20444;-77
2022/11/16 00:39:36;;;;;;;611.25;546.55;;;;;;;;;;6141235;23;20419;-76
2022/11/16 00:42:02;;;;;;;607.17;542.53;;;;;;;;;;6140840;23;20536;-77
2022/11/16 00:44:28;;;;;;;603.23;538.73;;;;;;;;;;6141653;23;20856;-76
2022/11/16 00:46:54;;;;;;;605.63;541.08;;;;;;;;;;6115651;23;20914;-76
2022/11/16 00:49:20;;;;;;;606.55;541.85;;;;;;;;;;6140163;23;20440;-77
2022/11/16 00:51:46;;;;;;;603.08;538.50;;;;;;;;;;6140902;23;20435;-76
2022/11/16 00:54:13;;;;;;;603.92;539.42;;;;;;;;;;6140988;23;20377;-76
2022/11/16 00:56:39;;;;;;;605.20;540.60;;;;;;;;;;6139561;23;20377;-77
2022/11/16 00:59:05;;;;;;;605.55;540.95;;;;;;;;;;6140467;23;20393;-77
2022/11/16 01:01:31;;;;;;;604.33;539.83;;;;;;;;;;6140947;23;20373;-76
2022/11/16 01:03:57;;;;;;;601.95;537.65;;;;;;;;;;6116079;23;20526;-76
2022/11/16 01:06:23;;;;;;;596.92;532.63;;;;;;;;;;6115477;23;20486;-76
2022/11/16 01:08:49;;;;;;;607.47;542.88;;;;;;;;;;6115779;23;20401;-76
2022/11/16 01:14:03;;;;;;;608.25;543.65;;;;;;;;;;6141605;23;20788;-76
2022/11/16 01:16:29;;;;;;;609.47;544.88;;;;;;;;;;6139204;23;20377;-76
2022/11/16 01:18:55;;;;;;;609.37;544.67;;;;;;;;;;6140895;23;20601;-76
2022/11/16 01:21:22;;;;;;;610.92;546.33;;;;;;;;;;6141362;23;20381;-77
2022/11/16 01:23:48;;;;;;;613.55;548.75;;;;;;;;;;6140007;23;20412;-76
2022/11/16 01:26:14;;;;;;;607.47;542.83;;;;;;;;;;6140384;23;20860;-76
2022/11/16 01:28:40;;;;;;;610.50;545.88;;;;;;;;;;6139328;23;20425;-76
2022/11/16 01:31:06;;;;;;;610.25;545.55;;;;;;;;;;6139835;23;20705;-76
2022/11/16 01:33:32;;;;;;;610.85;546.15;;;;;;;;;;6140551;23;20373;-76
2022/11/16 01:35:58;;;;;;;611.10;546.50;;;;;;;;;;6140812;23;20370;-76
2022/11/16 01:38:24;;;;;;;610.57;546.03;;;;;;;;;;6140942;23;20742;-76
2022/11/16 01:40:50;;;;;;;612.75;547.97;;;;;;;;;;6139587;23;20369;-76
2022/11/16 01:43:17;;;;;;;613.00;548.22;;;;;;;;;;6140788;23;20373;-76
2022/11/16 01:45:43;;;;;;;611.17;546.58;;;;;;;;;;6140251;23;20369;-76
2022/11/16 01:48:14;;;;;;;609.65;545.05;;;;;;;;;;6141158;23;20405;-76
2022/11/16 01:50:40;;;;;;;616.63;551.83;;;;;;;;;;6116178;23;20393;-76
2022/11/16 01:53:08;;;;;;;618.03;553.15;;;;;;;;;;6166288;23;20365;-76
2022/11/16 01:55:35;;;;;;;615.92;551.15;;;;;;;;;;6140198;23;20844;-77
2022/11/16 01:58:01;;;;;;;612.17;547.47;;;;;;;;;;6139966;23;20711;-77
2022/11/16 02:00:28;;;;;;;615.85;551.03;;;;;;;;;;6165617;23;20828;-76
2022/11/16 02:02:54;;;;;;;619.63;554.65;;;;;;;;;;6140820;23;21240;-76
2022/11/16 02:05:22;;;;;;;615.22;550.42;;;;;;;;;;6140706;23;20925;-77
2022/11/16 02:10:56;;;;;;;619.30;554.30;;;;;;;;;;6139054;23;20958;-76
2022/11/16 02:13:35;;;;;;;613.03;548.22;;;;;;;;;;6139257;23;20385;-77
2022/11/16 02:16:11;;;;;;;617.30;552.40;;;;;;;;;;6139943;23;20384;-77
2022/11/16 02:18:37;;;;;;;614.22;549.53;;;;;;;;;;6141158;23;20376;-76
2022/11/16 02:21:09;;;;;;;617.47;552.50;;;;;;;;;;6114747;23;20472;-76
2022/11/16 02:23:50;;;;;;;615.88;551.08;;;;;;;;;;6115176;23;20409;-77
2022/11/16 02:26:39;;;;;;;619.53;554.63;;;;;;;;;;6115929;23;20695;-77
2022/11/16 02:29:23;;;;;;;613.50;548.78;;;;;;;;;;6121357;23;20401;-76
2022/11/16 02:31:55;;;;;;;617.35;552.45;;;;;;;;;;6139371;23;20380;-76
2022/11/16 02:34:22;;;;;;;622.30;557.28;;;;;;;;;;6139029;23;20374;-76
2022/11/16 02:36:51;;;;;;;619.90;555.00;;;;;;;;;;6166697;23;20697;-76
2022/11/16 02:39:19;;;;;;;617.78;552.97;;;;;;;;;;6140240;23;20919;-77
2022/11/16 02:41:47;;;;;;;616.70;551.85;;;;;;;;;;6139244;23;20821;-77
2022/11/16 02:44:34;;;;;;;621.95;556.95;;;;;;;;;;6139927;23;20369;-77
2022/11/16 02:47:03;;;;;;;618.33;553.53;;;;;;;;;;6139183;23;20460;-77
2022/11/16 02:49:30;;;;;;;617.67;552.83;;;;;;;;;;6139766;23;21241;-77
2022/11/16 02:51:57;;;;;;;621.53;556.55;;;;;;;;;;6140427;23;20377;-77
2022/11/16 02:54:23;;;;;;;620.27;555.30;;;;;;;;;;6140274;23;20525;-77
2022/11/16 02:57:16;;;;;;;621.70;556.63;;;;;;;;;;6139162;23;20511;-77
2022/11/16 02:59:50;;;;;;;621.60;556.70;;;;;;;;;;6140647;23;20856;-77
2022/11/16 03:02:31;;;;;;;621.67;556.83;;;;;;;;;;6140024;23;20377;-76
2022/11/16 03:05:00;;;;;;;617.35;552.50;;;;;;;;;;6114938;23;20392;-76
2022/11/16 03:07:28;;;;;;;621.70;556.63;;;;;;;;;;6114264;23;20424;-77
2022/11/16 03:09:55;;;;;;;612.30;547.60;;;;;;;;;;6139955;23;20405;-77
2022/11/16 03:12:23;;;;;;;615.90;551.17;;;;;;;;;;6140504;23;20427;-77
2022/11/16 03:14:59;;;;;;;618.57;553.67;;;;;;;;;;6140069;23;20385;-76
2022/11/16 03:17:31;;;;;;;617.95;552.92;;;;;;;;;;6115198;23;20440;-77
2022/11/16 03:20:04;;;;;;;621.83;556.92;;;;;;;;;;6139581;23;20451;-76
2022/11/16 03:22:38;;;;;;;619.35;554.45;;;;;;;;;;6139881;23;20377;-77
2022/11/16 03:25:05;;;;;;;618.22;553.42;;;;;;;;;;6140220;23;20384;-76
2022/11/16 03:27:34;;;;;;;615.70;550.90;;;;;;;;;;6139504;23;20833;-76
2022/11/16 03:30:00;;;;;;;608.63;544.13;;;;;;;;;;6115674;23;20424;-77
2022/11/16 03:32:45;;;;;;;617.33;552.53;;;;;;;;;;6139534;23;20474;-77
2022/11/16 03:35:21;;;;;;;608.80;544.25;;;;;;;;;;6115660;23;20381;-76
2022/11/16 03:37:49;;;;;;;609.25;544.65;;;;;;;;;;6115289;23;20373;-76
2022/11/16 03:40:16;;;;;;;612.88;548.20;;;;;;;;;;6139824;23;20384;-77
2022/11/16 03:42:43;;;;;;;614.45;549.75;;;;;;;;;;6115828;23;20848;-76
2022/11/16 03:45:09;;;;;;;616.28;551.38;;;;;;;;;;6135807;23;20676;-77
2022/11/16 03:47:35;;;;;;;615.22;550.55;;;;;;;;;;6139344;23;20421;-77
2022/11/16 03:50:02;;;;;;;621.60;556.60;;;;;;;;;;6139528;23;20420;-76
2022/11/16 03:52:28;;;;;;;612.55;547.90;;;;;;;;;;6139095;23;20373;-76
2022/11/16 03:54:54;;;;;;;611.60;546.90;;;;;;;;;;6139374;23;20836;-77
2022/11/16 03:57:20;;;;;;;613.75;549.05;;;;;;;;;;6138341;23;20839;-77
2022/11/16 03:59:46;;;;;;;614.30;549.55;;;;;;;;;;6139591;23;20387;-77
2022/11/16 04:02:12;;;;;;;616.55;551.65;;;;;;;;;;6139288;23;20373;-77
2022/11/16 04:24:11;;;;;;;607.72;543.15;;;;;;;;;;6141378;23;20428;-76
2022/11/16 04:29:22;;;;;;;611.25;546.55;;;;;;;;;;6140059;23;20462;-76
2022/11/16 04:40:03;;;;;;;608.87;544.27;;;;;;;;;;6141755;23;20870;-77
2022/11/16 04:42:29;;;;;;;607.40;542.90;;;;;;;;;;6140628;23;20374;-76
2022/11/16 04:47:40;;;;;;;605.30;540.83;;;;;;;;;;6140364;23;20380;-77
2022/11/16 04:50:06;;;;;;;608.50;544.00;;;;;;;;;;6140330;23;20444;-76
2022/11/16 04:52:32;;;;;;;610.05;545.40;;;;;;;;;;6117239;23;20456;-76
2022/11/16 04:54:58;;;;;;;612.67;547.97;;;;;;;;;;6116115;23;20943;-76
2022/11/16 04:57:24;;;;;;;608.22;543.63;;;;;;;;;;6115805;23;20400;-76
2022/11/16 04:59:50;;;;;;;613.20;548.20;;;;;;;;;;6135725;23;20373;-76
2022/11/16 05:02:16;;;;;;;609.88;545.22;;;;;;;;;;6140168;23;20373;-76
2022/11/16 05:04:43;;;;;;;608.87;544.27;;;;;;;;;;6141321;23;21041;-76
2022/11/16 05:07:11;;;;;;;603.90;539.50;;;;;;;;;;6140004;23;20400;-77
2022/11/16 05:09:41;;;;;;;607.15;542.78;;;;;;;;;;6140871;23;20404;-76
2022/11/16 05:12:13;;;;;;;615.58;550.78;;;;;;;;;;6140640;23;20377;-76
2022/11/16 05:14:40;;;;;;;617.05;552.05;;;;;;;;;;6114972;23;20369;-76
2022/11/16 05:17:06;;;;;;;612.30;547.65;;;;;;;;;;6139551;23;20372;-77
2022/11/16 05:22:16;;;;;;;611.20;546.50;;;;;;;;;;6140916;23;20380;-77
2022/11/16 05:24:43;;;;;;;611.55;546.80;;;;;;;;;;6115818;23;20369;-76
2022/11/16 05:27:11;;;;;;;610.58;545.95;;;;;;;;;;6140303;23;20780;-76
2022/11/16 05:29:38;;;;;;;606.07;541.47;;;;;;;;;;6140263;23;20483;-76
2022/11/16 05:32:05;;;;;;;615.10;550.28;;;;;;;;;;6139980;23;20369;-77
2022/11/16 05:34:31;;;;;;;615.45;550.65;;;;;;;;;;6140564;23;20697;-76
2022/11/16 05:36:57;;;;;;;616.97;552.17;;;;;;;;;;6141114;23;20389;-77
2022/11/16 05:39:23;;;;;;;617.58;552.78;;;;;;;;;;6139280;23;20380;-76
2022/11/16 05:41:49;;;;;;;611.67;547.15;;;;;;;;;;6140086;23;20432;-77
2022/11/16 05:44:16;;;;;;;614.58;549.88;;;;;;;;;;6139955;23;20850;-77
2022/11/16 05:46:42;;;;;;;614.83;550.00;;;;;;;;;;6138900;23;20904;-77
2022/11/16 05:49:08;;;;;;;613.58;548.97;;;;;;;;;;6139461;23;20428;-78
2022/11/16 05:51:35;;;;;;;614.92;550.22;;;;;;;;;;6115479;23;20468;-77
2022/11/16 05:54:02;;;;;;;614.95;550.05;;;;;;;;;;6140488;23;20400;-77
2022/11/16 05:56:28;;;;;;;615.03;550.30;;;;;;;;;;6114648;23;20365;-78
2022/11/16 05:58:54;;;;;;;610.50;545.93;;;;;;;;;;6140214;23;20912;-78
2022/11/16 06:01:20;;;;;;;611.22;546.42;;;;;;;;;;6139861;23;20409;-78
2022/11/16 06:03:46;;;;;;;609.28;544.67;;;;;;;;;;6140141;23;20396;-78
2022/11/16 06:06:12;;;;;;;609.05;544.42;;;;;;;;;;6138947;23;20375;-77
2022/11/16 06:08:38;;;;;;;610.22;545.53;;;;;;;;;;6115679;23;20896;-78
2022/11/16 06:11:06;;;;;;;612.00;547.30;;;;;;;;;;6139472;23;20377;-77
2022/11/16 06:13:32;;;;;;;611.70;547.10;;;;;;;;;;6115216;23;20374;-77
2022/11/16 06:15:59;;;;;;;612.80;548.07;;;;;;;;;;6139246;23;20405;-77
2022/11/16 06:18:25;;;;;;;614.50;549.90;;;;;;;;;;6116323;23;20955;-77
2022/11/16 06:20:51;;;;;;;616.97;552.17;;;;;;;;;;6140091;23;20788;-77
2022/11/16 06:23:17;;;;;;;617.80;552.92;;;;;;;;;;6140425;23;20373;-77
2022/11/16 06:25:43;;;;;;;612.63;548.00;;;;;;;;;;6140005;23;20427;-77
2022/11/16 06:28:09;;;;;;;616.65;551.85;;;;;;;;;;6141190;23;20701;-77
2022/11/16 06:30:37;;;;;;;615.97;551.25;;;;;;;;;;6140097;23;20864;-77
2022/11/16 06:33:03;;;;;;;613.28;548.58;;;;;;;;;;6140500;23;20401;-77
2022/11/16 06:35:29;;;;;;;613.70;548.97;;;;;;;;;;6116101;23;20825;-77
2022/11/16 06:37:55;;;;;;;613.70;549.00;;;;;;;;;;6140363;23;20810;-77
2022/11/16 06:40:21;;;;;;;615.92;551.13;;;;;;;;;;6139968;23;20812;-77
2022/11/16 06:42:47;;;;;;;616.25;551.42;;;;;;;;;;6140643;23;20373;-77
2022/11/16 06:45:13;;;;;;;620.73;555.73;;;;;;;;;;6114976;23;20365;-78
2022/11/16 06:47:39;;;;;;;616.60;551.90;;;;;;;;;;6115420;23;20447;-78
2022/11/16 06:50:06;;;;;;;619.60;554.72;;;;;;;;;;6139762;23;20871;-78
2022/11/16 06:52:32;;;;;;;629.08;563.78;;;;;;;;;;6115761;23;20389;-78
2022/11/16 06:54:58;;;;;;;628.70;563.47;;;;;;;;;;6139932;23;20377;-79
2022/11/16 06:57:24;;;;;;;626.85;561.85;;;;;;;;;;6140234;23;20385;-78
2022/11/16 06:59:50;;;;;;;627.88;562.78;;;;;;;;;;6140064;23;20460;-78
2022/11/16 07:02:19;;;;;;;625.28;560.28;;;;;;;;;;6115172;23;20730;-77
2022/11/16 07:04:45;;;;;;;621.72;556.80;;;;;;;;;;6139410;23;20377;-77
2022/11/16 07:07:11;;;;;;;627.80;562.60;;;;;;;;;;6132863;23;20469;-77
2022/11/16 07:09:37;;;;;;;624.40;559.38;;;;;;;;;;6133682;23;20406;-77
2022/11/16 07:12:03;;;;;;;626.90;561.70;;;;;;;;;;6133055;23;20417;-78
2022/11/16 07:14:29;;;;;;;620.83;555.92;;;;;;;;;;6133034;23;20374;-78
2022/11/16 07:16:55;;;;;;;622.85;557.72;;;;;;;;;;6133901;23;20371;-77
2022/11/16 07:19:21;;;;;;;619.28;554.58;;;;;;;;;;6134684;23;20371;-77
2022/11/16 07:21:47;;;;;;;617.47;552.78;;;;;;;;;;6109721;23;20377;-78
2022/11/16 07:24:14;;;;;;;624.92;559.92;;;;;;;;;;6135395;23;20417;-77
2022/11/16 07:26:40;;;;;;;624.60;559.60;;;;;;;;;;6134856;23;20371;-76
2022/11/16 07:29:06;;;;;;;621.60;556.70;;;;;;;;;;6133359;23;20395;-76
2022/11/16 07:31:32;;;;;;;619.03;554.22;;;;;;;;;;6134967;23;20724;-76
2022/11/16 07:33:58;;;;;;;621.90;557.00;;;;;;;;;;6135654;23;20375;-77
2022/11/16 07:36:24;;;;;;;620.28;555.47;;;;;;;;;;6110992;23;20374;-78
2022/11/16 07:38:50;;;;;;;619.72;554.92;;;;;;;;;;6134337;23;20371;-78
2022/11/16 07:41:17;;;;;;;624.17;559.07;;;;;;;;;;6131747;23;20757;-77
2022/11/16 07:43:44;;;;;;;622.25;557.35;;;;;;;;;;6134335;23;20379;-77
2022/11/16 07:46:12;;;;;;;626.08;560.90;;;;;;;;;;6133212;23;20699;-77
2022/11/16 07:48:38;;;;;;;624.90;559.83;;;;;;;;;;6134757;23;20377;-77
2022/11/16 07:51:09;;;;;;;619.67;554.88;;;;;;;;;;6110669;23;20434;-79
2022/11/16 07:53:35;;;;;;;620.15;555.33;;;;;;;;;;6111433;23;20690;-77
2022/11/16 07:56:02;;;;;;;624.70;559.70;;;;;;;;;;6133520;23;20394;-77
2022/11/16 07:58:28;;;;;;;621.08;556.08;;;;;;;;;;6110777;23;20370;-78
2022/11/16 08:00:55;;;;;;;622.55;557.55;;;;;;;;;;6136523;23;20406;-78
2022/11/16 08:03:21;;;;;;;623.55;558.45;;;;;;;;;;6136820;23;20910;-78
2022/11/16 08:05:47;;;;;;;622.15;557.25;;;;;;;;;;6135841;23;20382;-78
2022/11/16 08:08:13;;;;;;;628.03;562.88;;;;;;;;;;6134187;23;20395;-78
2022/11/16 08:10:39;;;;;;;626.13;561.03;;;;;;;;;;6110645;23;20395;-78
2022/11/16 08:13:05;;;;;;;630.75;565.47;;;;;;;;;;6111200;23;20366;-78
2022/11/16 08:15:31;;;;;;;625.38;560.28;;;;;;;;;;6110624;23;20371;-78
2022/11/16 08:17:57;;;;;;;631.13;565.83;;;;;;;;;;6136035;23;20960;-78
2022/11/16 08:20:23;;;;;;;628.00;562.90;;;;;;;;;;6111566;23;20958;-78
2022/11/16 08:22:49;;;;;;;623.45;558.45;;;;;;;;;;6109398;23;20367;-78
2022/11/16 08:25:16;;;;;;;629.60;564.40;;;;;;;;;;6111313;23;20764;-78
2022/11/16 08:27:42;;;;;;;624.88;559.90;;;;;;;;;;6110393;23;20803;-77
2022/11/16 08:30:08;;;;;;;624.00;558.90;;;;;;;;;;6136324;23;20402;-77
2022/11/16 08:32:40;;;;;;;625.13;559.97;;;;;;;;;;6111160;23;20703;-77
2022/11/16 08:35:06;;;;;;;623.97;558.90;;;;;;;;;;6135424;23;20447;-77
2022/11/16 08:37:32;;;;;;;619.97;555.08;;;;;;;;;;6135963;23;20453;-78
2022/11/16 08:39:58;;;;;;;618.60;553.72;;;;;;;;;;6110731;23;20564;-78
2022/11/16 08:42:24;;;;;;;619.03;554.13;;;;;;;;;;6136467;23;20375;-78
2022/11/16 08:44:50;;;;;;;619.07;554.27;;;;;;;;;;6110874;23;20469;-77
2022/11/16 08:47:16;;;;;;;622.33;557.40;;;;;;;;;;6134034;23;20375;-77
2022/11/16 08:49:42;;;;;;;618.17;553.40;;;;;;;;;;6112227;23;20665;-78
2022/11/16 08:52:08;;;;;;;613.75;549.05;;;;;;;;;;6136972;23;20371;-77
2022/11/16 08:54:34;;;;;;;618.00;553.15;;;;;;;;;;6135184;23;20389;-77
2022/11/16 08:57:00;;;;;;;618.45;553.53;;;;;;;;;;6111467;23;20761;-77
2022/11/16 08:59:26;;;;;;;620.33;555.33;;;;;;;;;;6134450;23;20402;-77
2022/11/16 09:01:52;;;;;;;618.13;553.33;;;;;;;;;;6112326;23;20698;-79
2022/11/16 09:04:18;;;;;;;619.23;554.43;;;;;;;;;;6135528;23;20433;-79
2022/11/16 09:06:45;;;;;;;617.63;552.83;;;;;;;;;;6137679;23;20762;-79
2022/11/16 09:09:11;;;;;;;623.42;558.42;;;;;;;;;;6139760;23;20400;-80
2022/11/16 09:11:37;;;;;;;624.33;559.22;;;;;;;;;;6140275;23;20456;-78
2022/11/16 09:14:03;;;;;;;629.65;564.45;;;;;;;;;;6140790;23;20380;-81
2022/11/16 09:16:29;;;;;;;625.97;560.97;;;;;;;;;;6139118;23;20657;-79
2022/11/16 09:18:55;;;;;;;625.57;560.67;;;;;;;;;;6116423;23;20462;-79
2022/11/16 09:21:28;;;;;;;623.10;558.20;;;;;;;;;;6140540;23;20446;-79
2022/11/16 09:23:55;;;;;;;628.53;563.50;;;;;;;;;;6117131;23;20423;-78
2022/11/16 09:26:22;;;;;;;622.92;557.97;;;;;;;;;;6141034;23;20365;-80
2022/11/16 09:28:56;;;;;;;628.10;563.00;;;;;;;;;;6140088;23;20395;-79
2022/11/16 09:31:23;;;;;;;631.55;566.35;;;;;;;;;;6116544;23;20379;-79
2022/11/16 09:33:49;;;;;;;629.42;564.33;;;;;;;;;;6115425;23;20373;-80
2022/11/16 09:36:15;;;;;;;628.20;563.20;;;;;;;;;;6117061;23;20716;-80
2022/11/16 09:38:42;;;;;;;631.15;566.05;;;;;;;;;;6115892;23;20664;-80
2022/11/16 09:41:28;;;;;;;636.75;571.55;;;;;;;;;;6140238;23;20369;-81
2022/11/16 09:44:15;;;;;;;640.35;574.88;;;;;;;;;;6139674;23;20380;-78
2022/11/16 09:46:42;;;;;;;636.03;570.80;;;;;;;;;;6114739;23;20468;-78
2022/11/16 09:49:20;;;;;;;636.30;571.08;;;;;;;;;;6116106;23;20393;-77
2022/11/16 09:51:47;;;;;;;648.83;583.13;;;;;;;;;;6139897;23;20374;-78
2022/11/16 09:54:19;;;;;;;645.50;580.00;;;;;;;;;;6116016;23;20380;-77
2022/11/16 09:56:47;;;;;;;652.75;586.78;;;;;;;;;;6138216;23;20581;-77
2022/11/16 09:59:21;;;;;;;643.58;578.28;;;;;;;;;;6140564;23;20444;-78
2022/11/16 10:01:59;;;;;;;647.92;582.22;;;;;;;;;;6114745;23;20381;-77
2022/11/16 10:04:37;;;;;;;656.20;590.23;;;;;;;;;;6115225;23;20637;-77
2022/11/16 10:07:16;;;;;;;651.33;585.50;;;;;;;;;;6114528;23;20827;-77
2022/11/16 10:09:45;;;;;;;651.58;585.85;;;;;;;;;;6115848;23;20425;-77
2022/11/16 10:12:15;;;;;;;659.88;593.78;;;;;;;;;;6140342;23;20378;-77
2022/11/16 10:14:44;;;;;;;661.15;594.90;;;;;;;;;;6138731;23;20370;-78
2022/11/16 10:17:22;;;;;;;655.25;589.38;;;;;;;;;;6114493;23;20365;-77
2022/11/16 10:20:07;;;;;;;651.40;585.70;;;;;;;;;;6115142;23;20645;-77
2022/11/16 10:22:44;;;;;;;655.47;589.65;;;;;;;;;;6139117;23;20380;-77
2022/11/16 10:25:13;;;;;;;648.75;583.28;;;;;;;;;;6140927;23;20756;-77
2022/11/16 10:27:51;;;;;;;658.30;592.40;;;;;;;;;;6139966;23;20887;-77
2022/11/16 10:30:18;;;;;;;659.78;593.88;;;;;;;;;;6139999;23;20393;-78
2022/11/16 10:32:58;;;;;;;664.30;598.25;;;;;;;;;;6116456;23;20373;-78
2022/11/16 10:35:24;;;;;;;677.28;610.70;;;;;;;;;;6135459;23;20401;-82
2022/11/16 10:37:50;;;;;;;669.33;603.13;;;;;;;;;;6114596;23;20378;-82
2022/11/16 10:40:17;;;;;;;671.53;605.33;;;;;;;;;;6141237;23;20427;-80
2022/11/16 10:42:43;;;;;;;679.05;612.50;;;;;;;;;;6139999;23;20823;-81
2022/11/16 10:45:10;;;;;;;683.55;616.95;;;;;;;;;;6140128;23;20385;-81
2022/11/16 10:47:41;;;;;;;684.45;617.83;;;;;;;;;;6139826;23;20377;-81
2022/11/16 10:50:19;;;;;;;688.15;621.42;;;;;;;;;;6141215;23;20800;-83
2022/11/16 10:52:45;;;;;;;696.75;629.55;;;;;;;;;;6139682;23;20439;-80
2022/11/16 10:55:15;;;;;;;698.83;631.65;;;;;;;;;;6114224;23;21216;-81
2022/11/16 10:58:00;;;;;;;701.47;634.28;;;;;;;;;;6138507;23;20377;-81
2022/11/16 11:00:38;;;;;;;695.55;628.55;;;;;;;;;;6139566;23;20405;-81
2022/11/16 11:03:04;;;;;;;695.20;628.30;;;;;;;;;;6140234;23;20376;-80
2022/11/16 11:05:30;;;;;;;701.78;634.67;;;;;;;;;;6163914;23;20391;-80
2022/11/16 11:08:00;;;;;;;698.30;631.08;;;;;;;;;;6114430;23;20397;-80
2022/11/16 11:10:33;;;;;;;696.10;629.13;;;;;;;;;;6165010;23;20389;-81
2022/11/16 11:13:04;;;;;;;698.67;631.28;;;;;;;;;;6165022;23;20413;-81
2022/11/16 11:15:30;;;;;;;690.35;623.45;;;;;;;;;;6136546;23;20479;-81
2022/11/16 11:18:11;;;;;;;692.20;625.33;;;;;;;;;;6113010;23;20377;-81
2022/11/16 11:20:37;;;;;;;690.42;623.50;;;;;;;;;;6138091;23;20787;-80
2022/11/16 11:23:10;;;;;;;698.45;631.45;;;;;;;;;;6113303;23;20780;-80
2022/11/16 11:25:40;;;;;;;705.00;637.70;;;;;;;;;;6115141;23;20448;-80
2022/11/16 11:28:18;;;;;;;702.03;634.92;;;;;;;;;;6139549;23;20377;-80
2022/11/16 11:30:53;;;;;;;705.60;638.42;;;;;;;;;;6115595;23;20405;-80
2022/11/16 11:33:22;;;;;;;704.55;637.35;;;;;;;;;;6115760;23;20381;-82
2022/11/16 11:35:59;;;;;;;702.13;634.97;;;;;;;;;;6116834;23;20415;-82
2022/11/16 11:38:26;;;;;;;699.58;632.47;;;;;;;;;;6117825;23;20388;-81
2022/11/16 11:41:03;;;;;;;700.88;633.78;;;;;;;;;;6141659;23;20822;-83
2022/11/16 11:43:32;;;;;;;697.80;630.80;;;;;;;;;;6139697;23;20848;-81
2022/11/16 11:46:15;;;;;;;698.53;631.55;;;;;;;;;;6141987;23;20373;-81
2022/11/16 11:48:58;;;;;;;699.15;632.25;;;;;;;;;;6142289;23;20377;-81
2022/11/16 11:51:27;;;;;;;701.73;634.60;;;;;;;;;;6141345;23;20377;-80
2022/11/16 11:53:56;;;;;;;701.40;634.28;;;;;;;;;;6140975;23;20412;-80
2022/11/16 11:56:23;;;;;;;699.47;632.40;;;;;;;;;;6141570;23;20397;-80
2022/11/16 11:58:50;;;;;;;700.40;633.50;;;;;;;;;;6142937;23;20396;-80
2022/11/16 12:01:35;;;;;;;700.25;633.10;;;;;;;;;;6140300;23;20369;-80
2022/11/16 12:04:07;;;;;;;702.17;635.10;;;;;;;;;;6142340;23;20373;-80
2022/11/16 12:06:39;;;;;;;705.22;638.13;;;;;;;;;;6142402;23;20376;-80
2022/11/16 12:09:14;;;;;;;708.28;640.97;;;;;;;;;;6117888;23;20823;-80
2022/11/16 12:11:43;;;;;;;704.10;636.90;;;;;;;;;;6140519;23;20373;-81
2022/11/16 12:14:17;;;;;;;709.47;642.17;;;;;;;;;;6117635;23;20370;-81
2022/11/16 12:16:59;;;;;;;708.97;641.58;;;;;;;;;;6117200;23;20411;-81
2022/11/16 12:19:42;;;;;;;707.42;640.17;;;;;;;;;;6141859;23;20409;-81
2022/11/16 12:22:14;;;;;;;703.97;636.90;;;;;;;;;;6115855;23;20732;-85
2022/11/16 12:24:49;;;;;;;714.42;646.92;;;;;;;;;;6142431;23;20863;-82
2022/11/16 12:27:47;;;;;;;707.83;640.42;;;;;;;;;;6117187;23;20440;-80
2022/11/16 12:30:14;;;;;;;710.03;642.92;;;;;;;;;;6064385;23;20397;-80
2022/11/16 12:32:49;;;;;;;708.60;641.20;;;;;;;;;;6141301;23;20409;-79
2022/11/16 12:35:31;;;;;;;703.53;636.53;;;;;;;;;;6140849;23;20381;-80
2022/11/16 12:38:12;;;;;;;704.95;637.75;;;;;;;;;;6139757;23;20472;-80
2022/11/16 12:40:38;;;;;;;697.80;631.00;;;;;;;;;;6141156;23;20381;-80
2022/11/16 12:43:23;;;;;;;701.08;634.08;;;;;;;;;;6140817;23;20375;-80
2022/11/16 12:45:53;;;;;;;699.67;632.63;;;;;;;;;;6140382;23;20906;-80
2022/11/16 12:48:30;;;;;;;698.67;631.50;;;;;;;;;;6139421;23;20811;-82
2022/11/16 12:51:14;;;;;;;695.47;628.65;;;;;;;;;;6141734;23;20455;-81
2022/11/16 12:54:04;;;;;;;693.23;626.53;;;;;;;;;;6139910;23;20834;-81
2022/11/16 12:56:49;;;;;;;693.58;626.78;;;;;;;;;;6071827;23;20389;-81
2022/11/16 12:59:26;;;;;;;692.83;625.83;;;;;;;;;;6115593;23;20474;-81
2022/11/16 13:01:58;;;;;;;687.05;620.45;;;;;;;;;;6116461;23;20377;-79
2022/11/16 13:04:28;;;;;;;686.90;620.22;;;;;;;;;;6115733;23;20396;-80
2022/11/16 13:06:57;;;;;;;684.63;618.03;;;;;;;;;;6140586;23;20456;-80
2022/11/16 13:09:27;;;;;;;691.47;624.78;;;;;;;;;;6140789;23;20404;-81
2022/11/16 13:11:57;;;;;;;683.75;617.17;;;;;;;;;;6139620;23;20748;-80
2022/11/16 13:14:33;;;;;;;682.90;616.42;;;;;;;;;;6141380;23;20373;-76
2022/11/16 13:17:00;;;;;;;682.40;615.80;;;;;;;;;;6166707;23;20361;-76
2022/11/16 13:19:27;;;;;;;675.40;609.00;;;;;;;;;;6141480;23;20377;-77
2022/11/16 13:22:01;;;;;;;678.78;612.35;;;;;;;;;;6140988;23;20452;-77
2022/11/16 13:24:34;;;;;;;675.45;609.15;;;;;;;;;;6141422;23;20377;-75
2022/11/16 13:27:12;;;;;;;672.75;606.42;;;;;;;;;;6140501;23;20409;-77
2022/11/16 13:29:44;;;;;;;675.22;608.92;;;;;;;;;;6116771;23;20397;-77
2022/11/16 13:32:18;;;;;;;670.47;604.20;;;;;;;;;;6140937;23;20377;-77
2022/11/16 13:34:44;;;;;;;667.42;601.33;;;;;;;;;;6140886;23;20385;-77
2022/11/16 13:37:29;;;;;;;669.35;603.15;;;;;;;;;;6139631;23;20374;-76
2022/11/16 13:39:55;;;;;;;663.70;597.65;;;;;;;;;;6141071;23;20384;-76
2022/11/16 13:42:21;;;;;;;663.28;597.28;;;;;;;;;;6140272;23;20381;-76
2022/11/16 13:44:47;;;;;;;662.40;596.53;;;;;;;;;;6140200;23;20512;-76
2022/11/16 13:47:19;;;;;;;659.70;593.80;;;;;;;;;;6140329;23;20697;-76
2022/11/16 13:49:53;;;;;;;662.85;596.80;;;;;;;;;;6141433;23;20539;-77
2022/11/16 13:52:19;;;;;;;660.33;594.42;;;;;;;;;;6115940;23;20373;-76
2022/11/16 13:54:47;;;;;;;657.42;591.63;;;;;;;;;;6140474;23;20373;-76
2022/11/16 13:57:19;;;;;;;656.70;590.83;;;;;;;;;;6141165;23;20519;-76
2022/11/16 13:59:45;;;;;;;664.38;598.17;;;;;;;;;;6140184;23;20412;-77
2022/11/16 14:02:30;;;;;;;657.85;591.95;;;;;;;;;;6167193;23;20368;-76
2022/11/16 14:04:58;;;;;;;658.65;592.75;;;;;;;;;;6141488;23;20365;-77
2022/11/16 14:07:32;;;;;;;652.45;586.75;;;;;;;;;;6140466;23;20394;-78
2022/11/16 14:09:58;;;;;;;660.85;594.80;;;;;;;;;;6140093;23;20724;-77
2022/11/16 14:12:37;;;;;;;648.97;583.37;;;;;;;;;;6141012;23;20976;-79
2022/11/16 14:15:14;;;;;;;651.10;585.40;;;;;;;;;;6140829;23;20377;-79
2022/11/16 14:17:50;;;;;;;651.78;586.00;;;;;;;;;;6139822;23;21176;-78
2022/11/16 14:20:25;;;;;;;649.33;583.63;;;;;;;;;;6139895;23;20684;-78
2022/11/16 14:22:57;;;;;;;647.55;581.92;;;;;;;;;;6167326;23;20423;-79
2022/11/16 14:25:28;;;;;;;651.42;585.55;;;;;;;;;;6139981;23;20825;-78
2022/11/16 14:28:01;;;;;;;643.45;577.95;;;;;;;;;;6139417;23;20408;-78
2022/11/16 14:30:30;;;;;;;640.15;574.72;;;;;;;;;;6139902;23;20396;-78
2022/11/16 14:32:57;;;;;;;646.60;581.00;;;;;;;;;;6137680;23;20385;-78
2022/11/16 14:35:32;;;;;;;646.05;580.55;;;;;;;;;;6139289;23;20735;-79
2022/11/16 14:37:59;;;;;;;645.90;580.35;;;;;;;;;;6139542;23;20959;-77
2022/11/16 14:40:26;;;;;;;644.58;579.08;;;;;;;;;;6165653;23;20369;-77
2022/11/16 14:42:55;;;;;;;648.45;582.75;;;;;;;;;;6114080;23;20501;-78
2022/11/16 14:45:24;;;;;;;646.15;580.63;;;;;;;;;;6138730;23;20390;-77